Time;durP1;ratioP1;P1;durP2;ratioP2;P2;SDS_P1;SDS_P2;PMS_P1;PMS_P2;Temp;Humidity;BMP_temperature;BMP_pressure;BME280_temperature;BME280_humidity;BME280_pressure;Samples;Min_cycle;Max_cycle;Signal;HPM_P1;HPM_P2
2022/08/06 00:01:51;;;;;;;16.15;14.63;;;;;;;22.24;72.50;99378.02;1727974;83;21018;-43
2022/08/06 00:04:18;;;;;;;16.20;14.50;;;;;;;22.23;72.50;99379.83;1727916;83;21031;-42
2022/08/06 00:06:45;;;;;;;17.60;15.30;;;;;;;22.22;72.53;99381.81;1728181;83;21035;-42
2022/08/06 00:09:13;;;;;;;17.75;15.72;;;;;;;22.22;72.45;99385.95;1728042;83;21799;-43
2022/08/06 00:11:40;;;;;;;16.73;15.05;;;;;;;22.21;72.48;99380.89;1728227;83;21497;-43
2022/08/06 00:14:08;;;;;;;16.60;15.13;;;;;;;22.17;72.51;99380.99;1736795;81;20970;-43
2022/08/06 00:16:35;;;;;;;16.93;15.20;;;;;;;22.16;72.64;99382.80;1754361;81;22013;-43
2022/08/06 00:19:02;;;;;;;16.82;15.15;;;;;;;22.14;72.66;99382.45;1754485;81;21006;-43
2022/08/06 00:21:29;;;;;;;16.10;14.60;;;;;;;22.13;72.65;99385.81;1754457;81;21090;-43
2022/08/06 00:23:56;;;;;;;17.07;15.08;;;;;;;22.09;72.69;99383.16;1754274;81;23210;-43
2022/08/06 00:26:24;;;;;;;16.35;14.78;;;;;;;22.07;72.82;99391.09;1754250;81;21540;-43
2022/08/06 00:28:51;;;;;;;18.20;15.93;;;;;;;22.06;72.94;99389.56;1754553;81;21094;-42
2022/08/06 00:31:19;;;;;;;16.48;15.00;;;;;;;22.06;72.94;99392.33;1754451;81;21026;-43
2022/08/06 00:33:46;;;;;;;16.90;15.28;;;;;;;22.06;72.96;99387.41;1754463;81;21054;-43
2022/08/06 00:36:14;;;;;;;17.07;15.15;;;;;;;22.04;73.01;99386.45;1754491;81;22008;-42
2022/08/06 00:38:41;;;;;;;15.95;14.45;;;;;;;22.04;73.06;99386.45;1754322;81;20970;-43
2022/08/06 00:41:08;;;;;;;16.80;15.08;;;;;;;22.02;73.11;99390.27;1754453;81;21051;-42
2022/08/06 00:43:35;;;;;;;16.65;14.90;;;;;;;22.03;73.19;99388.26;1754543;81;21029;-42
2022/08/06 00:46:02;;;;;;;16.15;13.93;;;;;;;22.03;73.15;99389.04;1727536;81;21018;-42
2022/08/06 00:48:29;;;;;;;15.90;14.38;;;;;;;22.02;73.16;99393.03;1754577;81;21544;-43
2022/08/06 00:50:56;;;;;;;15.85;14.35;;;;;;;22.00;73.08;99390.52;1754286;81;20974;-43
2022/08/06 00:53:23;;;;;;;15.85;14.20;;;;;;;21.98;73.10;99386.03;1754103;81;21564;-43
2022/08/06 00:55:50;;;;;;;16.40;14.53;;;;;;;21.92;73.14;99389.92;1754447;81;21050;-43
2022/08/06 00:58:20;;;;;;;16.30;14.80;;;;;;;21.90;73.27;99397.84;1754398;81;21280;-43
2022/08/06 01:00:47;;;;;;;17.73;14.85;;;;;;;21.67;73.18;99367.72;1754337;81;21136;-42
2022/08/06 01:03:16;;;;;;;16.52;14.93;;;;;;;21.87;73.18;99404.25;1754187;81;20939;-43
2022/08/06 01:05:44;;;;;;;17.62;15.05;;;;;;;21.84;73.16;99411.22;1754453;81;20970;-43
2022/08/06 01:08:12;;;;;;;16.65;14.73;;;;;;;21.81;73.21;99410.72;1754274;81;21082;-43
2022/08/06 01:10:39;;;;;;;17.25;15.13;;;;;;;21.78;73.29;99413.76;1754505;81;21081;-43
2022/08/06 01:13:06;;;;;;;19.70;14.45;;;;;;;21.79;73.30;99415.89;1754303;81;21126;-43
2022/08/06 01:15:34;;;;;;;15.68;14.20;;;;;;;21.78;73.33;99415.14;1732798;81;21012;-43
2022/08/06 01:18:08;;;;;;;16.00;14.30;;;;;;;21.78;73.27;99416.52;1727984;83;21094;-42
2022/08/06 01:21:15;;;;;;;18.15;14.18;;;;;;;21.78;73.30;99416.52;1727724;82;21015;-43
2022/08/06 01:24:06;;;;;;;14.95;13.55;;;;;;;21.78;73.33;99418.50;1728025;83;21038;-42
2022/08/06 01:26:58;;;;;;;15.05;13.55;;;;;;;21.75;73.43;99431.16;1727932;82;21242;-42
2022/08/06 01:29:29;;;;;;;14.30;12.80;;;;;;;21.74;73.46;99427.45;1727789;83;21532;-42
2022/08/06 01:32:07;;;;;;;15.68;13.20;;;;;;;21.72;73.53;99427.90;1727901;83;21007;-43
2022/08/06 01:34:48;;;;;;;14.20;12.80;;;;;;;21.72;73.55;99426.52;1727581;82;21493;-42
2022/08/06 01:37:33;;;;;;;13.93;12.53;;;;;;;21.71;73.49;99423.58;1727980;83;21010;-43
2022/08/06 01:40:03;;;;;;;14.18;12.85;;;;;;;21.69;73.52;99424.61;1714068;83;21792;-42
2022/08/06 01:42:32;;;;;;;14.65;13.15;;;;;;;21.69;73.57;99431.50;1727864;83;20948;-43
2022/08/06 01:45:01;;;;;;;16.57;12.60;;;;;;;21.70;73.52;99428.92;1728332;82;20991;-42
2022/08/06 01:47:30;;;;;;;14.38;12.88;;;;;;;21.70;73.42;99430.30;1728033;83;21010;-42
2022/08/06 01:49:59;;;;;;;16.48;12.43;;;;;;;21.69;73.36;99425.38;1745968;82;20952;-43
2022/08/06 01:52:26;;;;;;;13.98;11.95;;;;;;;21.67;73.31;99425.06;1748947;82;21936;-42
2022/08/06 01:54:53;;;;;;;15.13;12.07;;;;;;;21.67;73.27;99431.18;1748917;82;21016;-42
2022/08/06 01:57:21;;;;;;;14.10;12.13;;;;;;;21.66;73.26;99432.38;1720180;82;20991;-43
2022/08/06 01:59:52;;;;;;;14.10;12.70;;;;;;;21.64;73.20;99427.28;1748898;82;20973;-42
2022/08/06 02:02:22;;;;;;;13.35;12.10;;;;;;;21.64;73.15;99427.28;1749255;82;21482;-43
2022/08/06 02:04:52;;;;;;;13.60;11.57;;;;;;;21.63;73.12;99427.73;1749231;82;22183;-43
2022/08/06 02:07:22;;;;;;;13.18;11.78;;;;;;;21.61;73.07;99428.76;1748748;82;21502;-43
2022/08/06 02:09:50;;;;;;;13.53;12.20;;;;;;;21.59;73.08;99436.71;1748912;82;20956;-42
2022/08/06 02:12:20;;;;;;;15.35;12.53;;;;;;;21.59;73.07;99429.19;1748662;82;21349;-43
2022/08/06 02:15:07;;;;;;;13.38;11.97;;;;;;;21.58;73.04;99435.16;1751700;81;21526;-43
2022/08/06 02:17:39;;;;;;;13.78;12.37;;;;;;;21.59;72.99;99432.58;1751742;81;21304;-43
2022/08/06 02:20:07;;;;;;;12.98;11.78;;;;;;;21.57;72.92;99440.49;1756754;81;20985;-43
2022/08/06 02:22:37;;;;;;;15.72;11.93;;;;;;;21.55;72.93;99440.14;1756694;81;20957;-43
2022/08/06 02:25:08;;;;;;;13.50;11.83;;;;;;;21.56;72.88;99438.94;1757180;81;20906;-42
2022/08/06 02:27:35;;;;;;;13.10;11.80;;;;;;;21.56;72.93;99438.94;1756781;81;21029;-42
2022/08/06 02:30:04;;;;;;;13.88;11.80;;;;;;;21.54;72.88;99442.12;1756831;81;21226;-43
2022/08/06 02:32:31;;;;;;;13.28;11.93;;;;;;;21.54;72.74;99453.15;1756864;81;21013;-43
2022/08/06 02:34:58;;;;;;;13.62;12.13;;;;;;;21.53;72.75;99448.08;1756603;81;20961;-43
2022/08/06 02:37:31;;;;;;;13.32;11.43;;;;;;;21.53;72.80;99442.56;1756729;81;21064;-42
2022/08/06 02:40:05;;;;;;;12.95;11.65;;;;;;;21.53;72.66;99445.33;1756105;81;21131;-43
2022/08/06 02:42:52;;;;;;;12.85;11.65;;;;;;;21.53;72.65;99448.08;1756845;81;21123;-43
2022/08/06 02:45:33;;;;;;;13.08;11.78;;;;;;;21.51;72.61;99446.34;1756233;81;21514;-42
2022/08/06 02:48:46;;;;;;;13.13;11.10;;;;;;;21.49;72.57;99450.94;1756592;81;20973;-43
2022/08/06 02:51:16;;;;;;;12.58;11.38;;;;;;;21.48;72.64;99452.14;1756899;81;21041;-42
2022/08/06 02:54:04;;;;;;;12.88;11.50;;;;;;;21.47;72.55;99447.04;1756886;81;21543;-43
2022/08/06 02:56:32;;;;;;;13.55;12.25;;;;;;;21.46;72.51;99445.48;1756778;81;21133;-43
2022/08/06 02:58:59;;;;;;;12.45;11.28;;;;;;;21.44;72.56;99445.94;1705119;81;21020;-42
2022/08/06 03:01:35;;;;;;;12.88;11.60;;;;;;;21.46;72.55;99448.23;1756792;81;21052;-42
2022/08/06 03:04:02;;;;;;;13.20;11.90;;;;;;;21.46;72.53;99451.00;1757020;81;20990;-43
2022/08/06 03:06:32;;;;;;;13.72;11.73;;;;;;;21.47;72.55;99450.58;1756977;81;21076;-43
2022/08/06 03:09:01;;;;;;;14.50;11.88;;;;;;;21.48;72.50;99452.73;1756880;81;21246;-43
2022/08/06 03:11:32;;;;;;;16.12;12.20;;;;;;;21.51;72.44;99453.24;1757177;81;21020;-42
2022/08/06 03:14:03;;;;;;;12.93;11.63;;;;;;;21.52;72.42;99463.86;1756979;81;20961;-43
2022/08/06 03:16:31;;;;;;;13.45;12.03;;;;;;;21.53;72.40;99461.88;1756604;81;21520;-43
2022/08/06 03:18:58;;;;;;;13.08;11.65;;;;;;;21.54;72.37;99466.20;1756995;81;21053;-43
2022/08/06 03:21:27;;;;;;;13.13;11.70;;;;;;;21.54;72.39;99459.30;1757032;81;21123;-43
2022/08/06 03:23:54;;;;;;;13.55;12.23;;;;;;;21.54;72.44;99463.44;1757145;81;21508;-43
2022/08/06 03:26:21;;;;;;;14.47;11.63;;;;;;;21.55;72.48;99462.20;1757003;81;21064;-43
2022/08/06 03:28:48;;;;;;;13.95;12.55;;;;;;;21.56;72.51;99461.00;1757043;81;21041;-42
2022/08/06 03:31:15;;;;;;;12.90;11.63;;;;;;;21.57;72.49;99457.83;1757185;81;21080;-42
2022/08/06 03:33:42;;;;;;;12.63;11.48;;;;;;;21.60;72.51;99465.83;1757098;81;21234;-42
2022/08/06 03:36:09;;;;;;;15.58;11.80;;;;;;;21.63;72.56;99464.98;1756823;81;20963;-43
2022/08/06 03:38:43;;;;;;;13.95;11.50;;;;;;;21.66;72.48;99462.73;1756773;81;21045;-42
2022/08/06 03:41:10;;;;;;;12.73;11.28;;;;;;;21.68;72.53;99466.63;1757026;81;21515;-42
2022/08/06 03:43:37;;;;;;;12.45;11.22;;;;;;;21.72;72.53;99474.03;1756921;81;21080;-42
2022/08/06 03:46:06;;;;;;;13.58;11.22;;;;;;;21.74;72.54;99477.89;1756877;81;21234;-43
2022/08/06 03:48:39;;;;;;;12.75;11.50;;;;;;;21.78;72.37;99477.23;1756783;81;21334;-42
2022/08/06 03:51:15;;;;;;;13.55;11.35;;;;;;;21.81;72.22;99480.50;1756823;81;21065;-43
2022/08/06 03:53:43;;;;;;;11.63;10.38;;;;;;;21.82;72.07;99472.99;1756664;81;20953;-42
2022/08/06 03:56:18;;;;;;;12.58;11.30;;;;;;;21.84;71.92;99478.23;1756907;81;21045;-43
2022/08/06 03:58:45;;;;;;;12.63;10.80;;;;;;;21.88;71.76;99485.82;1756816;81;21328;-43
2022/08/06 04:01:16;;;;;;;11.73;10.53;;;;;;;21.91;71.70;99484.98;1756862;81;21507;-43
2022/08/06 04:03:43;;;;;;;11.88;10.70;;;;;;;21.94;71.55;99486.89;1757192;81;20993;-42
2022/08/06 04:06:10;;;;;;;11.15;10.15;;;;;;;21.98;71.44;99486.19;1739821;81;21010;-43
2022/08/06 04:08:39;;;;;;;10.60;9.50;;;;;;;22.02;71.08;99488.88;1756879;81;21020;-43
2022/08/06 04:11:06;;;;;;;11.30;9.75;;;;;;;22.03;70.65;99487.65;1721035;83;21087;-43
2022/08/06 04:13:33;;;;;;;11.55;8.85;;;;;;;22.02;70.66;99485.52;1720813;83;20979;-43
2022/08/06 04:16:00;;;;;;;10.48;9.48;;;;;;;22.04;70.29;99487.23;1713312;83;20981;-43
2022/08/06 04:18:36;;;;;;;10.03;9.03;;;;;;;22.05;70.14;99489.39;1707622;84;21404;-42
2022/08/06 04:21:09;;;;;;;11.05;9.08;;;;;;;22.06;70.13;99486.20;1743864;82;21006;-43
2022/08/06 04:23:37;;;;;;;11.22;8.70;;;;;;;22.07;70.13;99494.62;1743975;82;21047;-43
2022/08/06 04:26:06;;;;;;;10.35;9.30;;;;;;;22.10;70.02;99496.55;1707951;83;21004;-42
2022/08/06 04:28:36;;;;;;;10.72;8.88;;;;;;;22.15;69.93;99498.60;1707896;84;21065;-43
2022/08/06 04:31:02;;;;;;;11.18;8.98;;;;;;;22.17;69.81;99503.88;1743626;82;20950;-42
2022/08/06 04:33:31;;;;;;;10.48;9.23;;;;;;;22.20;69.73;99501.62;1743636;82;21053;-42
2022/08/06 04:36:04;;;;;;;9.53;8.53;;;;;;;22.23;69.54;99501.34;1743497;82;23153;-42
2022/08/06 04:38:29;;;;;;;10.05;8.83;;;;;;;22.26;69.10;99504.63;1702542;83;21571;-42
2022/08/06 04:40:57;;;;;;;10.48;9.40;;;;;;;22.27;69.19;99508.32;1707760;84;20953;-42
2022/08/06 04:43:24;;;;;;;10.18;9.20;;;;;;;22.30;69.05;99508.85;1743392;81;21011;-42
2022/08/06 04:45:51;;;;;;;9.60;8.70;;;;;;;22.35;68.88;99510.30;1743496;82;21025;-42
2022/08/06 04:48:19;;;;;;;11.88;9.15;;;;;;;22.38;69.02;99509.42;1738735;82;21972;-43
2022/08/06 04:50:46;;;;;;;10.05;8.80;;;;;;;22.42;69.04;99505.95;1743486;82;20939;-43
2022/08/06 04:53:17;;;;;;;9.83;8.83;;;;;;;22.45;69.01;99508.64;1743402;82;21073;-42
2022/08/06 04:55:45;;;;;;;10.63;8.80;;;;;;;22.50;68.99;99510.88;1743259;82;21069;-42
2022/08/06 04:58:14;;;;;;;9.98;9.00;;;;;;;22.56;68.89;99502.80;1743471;82;20986;-42
2022/08/06 05:00:44;;;;;;;9.70;8.73;;;;;;;22.61;68.65;99510.56;1743658;82;21227;-42
2022/08/06 05:03:11;;;;;;;11.45;9.23;;;;;;;22.69;68.61;99508.39;1743313;82;21077;-42
2022/08/06 05:05:45;;;;;;;10.60;8.98;;;;;;;22.73;68.23;99508.49;1743459;81;20942;-43
2022/08/06 05:08:12;;;;;;;10.35;9.35;;;;;;;22.77;67.85;99505.62;1702878;83;20975;-43
2022/08/06 05:11:00;;;;;;;11.40;9.70;;;;;;;22.78;67.77;99505.19;1707868;84;21041;-43
2022/08/06 05:13:33;;;;;;;9.73;8.83;;;;;;;22.78;67.97;99511.32;1743688;82;21269;-43
2022/08/06 05:16:03;;;;;;;10.15;9.25;;;;;;;22.80;68.30;99506.89;1707761;83;20973;-42
2022/08/06 05:18:36;;;;;;;10.45;9.30;;;;;;;22.85;68.20;99506.35;1707728;84;20985;-42
2022/08/06 05:21:04;;;;;;;10.78;8.55;;;;;;;22.92;67.90;99507.55;1707375;84;21273;-42
2022/08/06 05:23:42;;;;;;;8.93;8.13;;;;;;;22.98;67.50;99509.16;1743483;82;21391;-43
2022/08/06 05:26:09;;;;;;;10.32;8.78;;;;;;;23.06;67.20;99511.10;1707450;84;23152;-42
2022/08/06 05:28:41;;;;;;;9.70;8.90;;;;;;;23.04;66.93;99494.19;1707866;84;20977;-43
2022/08/06 05:31:09;;;;;;;9.35;8.33;;;;;;;23.21;66.79;99515.78;1743498;82;21030;-42
2022/08/06 05:33:37;;;;;;;9.58;8.43;;;;;;;23.24;66.71;99510.73;1743314;82;21089;-42
2022/08/06 05:36:11;;;;;;;9.80;8.30;;;;;;;23.29;66.59;99518.48;1743294;81;20934;-42
2022/08/06 05:38:40;;;;;;;9.53;8.63;;;;;;;23.35;66.06;99518.11;1743449;82;21847;-43
2022/08/06 05:41:10;;;;;;;9.20;8.30;;;;;;;23.43;65.88;99515.89;1707807;83;20965;-42
2022/08/06 05:43:40;;;;;;;9.25;8.15;;;;;;;23.51;65.72;99513.11;1707638;84;21001;-42
2022/08/06 05:46:17;;;;;;;8.90;8.08;;;;;;;23.58;65.63;99517.63;1743306;82;21020;-43
2022/08/06 05:48:50;;;;;;;9.50;8.13;;;;;;;23.66;64.85;99523.91;1743310;81;21606;-43
2022/08/06 05:51:25;;;;;;;8.55;7.75;;;;;;;23.72;64.89;99522.11;1743540;82;21102;-42
2022/08/06 05:53:57;;;;;;;8.08;7.33;;;;;;;23.80;64.76;99520.68;1739442;82;21515;-43
2022/08/06 05:56:31;;;;;;;8.70;7.78;;;;;;;23.87;63.92;99520.30;1743413;81;21022;-43
2022/08/06 05:59:02;;;;;;;9.23;8.30;;;;;;;23.93;63.79;99525.41;1743437;82;20995;-42
2022/08/06 06:01:30;;;;;;;8.88;7.92;;;;;;;23.97;63.90;99515.77;1743604;82;21046;-43
2022/08/06 06:03:57;;;;;;;9.00;8.18;;;;;;;24.03;63.63;99520.13;1686549;84;21903;-43
2022/08/06 06:06:25;;;;;;;10.53;7.90;;;;;;;24.05;63.08;99518.48;1707621;84;21516;-43
2022/08/06 06:08:53;;;;;;;9.08;8.15;;;;;;;24.10;62.70;99519.91;1707674;84;20972;-42
2022/08/06 06:11:20;;;;;;;8.75;7.78;;;;;;;24.14;62.89;99515.02;1708007;84;20961;-43
2022/08/06 06:13:47;;;;;;;8.48;7.70;;;;;;;24.17;63.19;99519.68;1708776;82;21037;-43
2022/08/06 06:16:31;;;;;;;8.48;7.58;;;;;;;24.21;63.00;99514.79;1748654;81;21141;-43
2022/08/06 06:19:16;;;;;;;7.50;6.80;;;;;;;24.29;62.79;99514.73;1756591;81;20997;-42
2022/08/06 06:22:10;;;;;;;8.05;7.35;;;;;;;24.35;61.94;99514.94;1720549;83;21068;-43
2022/08/06 06:24:42;;;;;;;8.45;7.65;;;;;;;24.41;61.25;99513.12;1694024;83;21040;-43
2022/08/06 06:27:17;;;;;;;8.60;7.85;;;;;;;24.44;61.46;99512.23;1720988;83;20977;-43
2022/08/06 06:30:01;;;;;;;9.33;8.23;;;;;;;24.48;61.04;99507.34;1720681;83;21248;-42
2022/08/06 06:32:57;;;;;;;8.95;8.08;;;;;;;24.52;61.28;99504.60;1720758;83;21546;-42
2022/08/06 06:35:37;;;;;;;8.13;7.33;;;;;;;24.60;61.36;99517.58;1720668;83;20993;-42
2022/08/06 06:38:20;;;;;;;;;;;;;;;24.68;61.00;99512.74;1723088;83;21032;-43
2022/08/06 06:41:16;;;;;;;7.75;6.95;;;;;;;24.80;60.52;99507.56;1698670;84;20174;-43
2022/08/06 06:43:48;;;;;;;8.83;7.25;;;;;;;24.80;61.00;99508.95;1702868;84;21241;-42
2022/08/06 06:46:32;;;;;;;8.48;7.75;;;;;;;24.91;60.07;99502.44;1702920;84;21906;-43
2022/08/06 06:49:04;;;;;;;7.97;7.10;;;;;;;25.00;59.55;99502.48;1702891;84;20970;-42
2022/08/06 06:51:42;;;;;;;8.15;7.35;;;;;;;25.09;59.01;99503.91;1675082;84;21097;-43
2022/08/06 06:54:15;;;;;;;8.58;7.70;;;;;;;25.15;59.16;99508.27;1699268;84;21078;-43
2022/08/06 06:56:45;;;;;;;8.28;7.50;;;;;;;25.22;59.24;99507.39;1701625;84;21932;-43
2022/08/06 06:59:24;;;;;;;9.53;7.60;;;;;;;25.28;58.53;99502.78;1702838;84;20990;-43
2022/08/06 07:01:51;;;;;;;8.38;7.65;;;;;;;25.34;58.31;99498.80;1702909;84;21022;-43
2022/08/06 07:04:18;;;;;;;8.50;7.70;;;;;;;25.41;58.29;99501.31;1702595;84;20942;-43
2022/08/06 07:06:47;;;;;;;10.35;7.30;;;;;;;25.48;58.32;99497.63;1702708;84;21049;-43
2022/08/06 07:09:17;;;;;;;7.85;7.25;;;;;;;25.55;58.55;99498.00;1702988;84;21235;-43
2022/08/06 07:11:45;;;;;;;8.05;7.25;;;;;;;25.63;58.58;99493.70;1702509;84;21021;-43
2022/08/06 07:14:12;;;;;;;8.70;7.15;;;;;;;25.73;57.43;99493.10;1702749;84;20950;-43
2022/08/06 07:16:39;;;;;;;8.93;7.12;;;;;;;25.80;57.06;99491.44;1699001;84;21046;-43
2022/08/06 07:19:07;;;;;;;7.35;6.65;;;;;;;25.86;57.37;99490.97;1707759;84;21078;-43
2022/08/06 07:21:34;;;;;;;7.78;7.08;;;;;;;25.96;57.08;99489.75;1707832;84;21111;-43
2022/08/06 07:24:01;;;;;;;7.90;7.20;;;;;;;26.04;56.14;99491.02;1707635;84;21017;-43
2022/08/06 07:26:28;;;;;;;8.73;6.67;;;;;;;26.12;56.20;99490.86;1707511;84;21547;-43
2022/08/06 07:28:55;;;;;;;7.95;7.15;;;;;;;26.21;55.63;99488.12;1707310;84;21620;-43
2022/08/06 07:31:24;;;;;;;10.28;7.47;;;;;;;26.29;55.49;99486.56;1707504;84;21069;-43
2022/08/06 07:33:51;;;;;;;7.78;7.05;;;;;;;26.36;55.70;99484.88;1707452;84;21235;-43
2022/08/06 07:36:21;;;;;;;8.40;7.53;;;;;;;26.47;55.07;99489.20;1679384;84;21014;-43
2022/08/06 07:38:48;;;;;;;7.42;6.78;;;;;;;26.53;54.96;99485.32;1707589;84;20965;-43
2022/08/06 07:41:15;;;;;;;7.55;6.83;;;;;;;26.62;54.56;99485.34;1707332;84;21092;-43
2022/08/06 07:43:54;;;;;;;7.70;7.00;;;;;;;26.71;54.79;99484.55;1707281;84;21457;-42
2022/08/06 07:46:25;;;;;;;7.50;6.67;;;;;;;26.82;55.08;99485.59;1699938;84;21531;-43
2022/08/06 07:48:55;;;;;;;6.85;6.15;;;;;;;26.94;53.38;99484.52;1707311;84;20942;-43
2022/08/06 07:51:25;;;;;;;7.78;6.83;;;;;;;27.04;52.89;99484.66;1707552;84;21026;-43
2022/08/06 07:53:52;;;;;;;6.72;6.03;;;;;;;27.11;52.51;99471.16;1704431;84;21600;-43
2022/08/06 07:56:19;;;;;;;7.33;6.58;;;;;;;27.21;52.50;99481.03;1707551;84;21057;-43
2022/08/06 07:58:46;;;;;;;9.55;6.67;;;;;;;27.33;52.15;99475.73;1707743;84;21332;-43
2022/08/06 08:01:14;;;;;;;8.00;6.60;;;;;;;27.44;52.64;99476.00;1701464;84;21108;-43
2022/08/06 08:06:28;;;;;;;8.60;6.33;;;;;;;27.66;51.40;99481.48;1695084;84;21073;-43
2022/08/06 08:09:16;;;;;;;7.53;6.83;;;;;;;27.74;51.16;99477.70;1690211;84;21053;-43
2022/08/06 08:11:45;;;;;;;7.80;6.55;;;;;;;27.86;52.00;99479.50;1690573;84;21574;-44
2022/08/06 08:14:15;;;;;;;7.37;6.67;;;;;;;27.93;50.94;99476.34;1695290;84;21543;-43
2022/08/06 08:16:44;;;;;;;8.65;6.75;;;;;;;28.02;50.58;99473.52;1696734;83;20965;-43
2022/08/06 08:19:30;;;;;;;8.15;6.50;;;;;;;28.12;50.63;99467.91;1710106;83;20953;-42
2022/08/06 08:21:56;;;;;;;7.85;6.25;;;;;;;28.20;50.30;99476.81;1700651;84;21124;-43
2022/08/06 08:24:24;;;;;;;6.75;6.15;;;;;;;28.31;49.93;99477.66;1710042;83;21206;-43
2022/08/06 08:26:51;;;;;;;8.85;6.65;;;;;;;28.42;49.58;99468.88;1681877;85;21039;-43
2022/08/06 08:29:19;;;;;;;7.37;6.67;;;;;;;28.52;50.15;99470.95;1700701;84;20957;-43
2022/08/06 08:31:46;;;;;;;7.72;6.92;;;;;;;28.62;49.93;99466.06;1710378;83;21019;-43
2022/08/06 08:34:13;;;;;;;9.10;6.60;;;;;;;28.73;49.96;99467.06;1700655;84;21036;-43
2022/08/06 08:36:40;;;;;;;6.90;6.20;;;;;;;28.86;49.25;99467.55;1710372;83;21515;-43
2022/08/06 08:39:07;;;;;;;8.93;6.35;;;;;;;28.98;49.09;99470.53;1700446;84;21047;-43
2022/08/06 08:41:39;;;;;;;7.15;6.30;;;;;;;29.09;48.26;99468.70;1710101;83;20980;-43
2022/08/06 08:44:09;;;;;;;7.50;6.70;;;;;;;29.22;46.94;99475.37;1700578;84;21013;-43
2022/08/06 08:46:42;;;;;;;8.88;7.00;;;;;;;29.27;47.52;99463.52;1710331;83;21025;-43
2022/08/06 08:49:19;;;;;;;9.75;6.62;;;;;;;29.32;47.36;99465.66;1700570;84;21212;-43
2022/08/06 08:51:47;;;;;;;7.35;6.65;;;;;;;29.40;46.91;99463.99;1710246;83;20981;-43
2022/08/06 08:54:17;;;;;;;7.58;6.65;;;;;;;29.50;46.73;99469.60;1700501;84;21048;-43
2022/08/06 08:56:45;;;;;;;7.00;6.12;;;;;;;29.61;46.16;99466.20;1710620;83;21619;-43
2022/08/06 08:59:12;;;;;;;7.62;6.22;;;;;;;29.70;45.88;99475.23;1700492;84;21041;-43
2022/08/06 09:01:40;;;;;;;6.37;5.78;;;;;;;29.79;45.09;99470.91;1710336;83;21243;-43
2022/08/06 09:04:07;;;;;;;7.20;6.37;;;;;;;29.87;44.68;99466.31;1700576;84;21572;-43
2022/08/06 09:06:37;;;;;;;8.90;6.10;;;;;;;29.95;44.81;99465.42;1710403;83;21095;-43
2022/08/06 09:09:05;;;;;;;9.55;6.03;;;;;;;30.04;44.58;99468.08;1700648;84;20988;-43
2022/08/06 09:11:33;;;;;;;6.40;5.80;;;;;;;30.15;44.42;99464.66;1710556;83;21607;-43
2022/08/06 09:14:03;;;;;;;7.10;6.28;;;;;;;30.26;44.71;99461.97;1700900;84;21137;-43
2022/08/06 09:16:31;;;;;;;6.70;6.00;;;;;;;30.35;44.43;99461.06;1709955;83;21040;-43
2022/08/06 09:19:00;;;;;;;7.90;5.87;;;;;;;30.44;43.44;99464.48;1691990;84;21494;-43
2022/08/06 09:21:28;;;;;;;8.33;5.97;;;;;;;30.50;43.08;99470.91;1691343;84;21087;-43
2022/08/06 09:23:56;;;;;;;6.67;5.97;;;;;;;30.56;42.66;99472.36;1720533;83;21243;-43
2022/08/06 09:26:23;;;;;;;8.23;5.70;;;;;;;30.59;42.85;99474.97;1720458;83;21487;-43
2022/08/06 09:28:50;;;;;;;6.55;5.97;;;;;;;30.68;42.41;99465.63;1691720;84;20991;-43
2022/08/06 09:31:19;;;;;;;6.58;5.55;;;;;;;30.75;42.23;99464.41;1691749;84;21058;-43
2022/08/06 09:34:00;;;;;;;8.53;5.35;;;;;;;30.78;41.98;99469.03;1720685;83;20945;-43
2022/08/06 09:36:27;;;;;;;8.88;6.35;;;;;;;30.83;42.33;99467.69;1720550;83;21036;-43
2022/08/06 09:38:59;;;;;;;6.95;5.75;;;;;;;30.90;41.50;99470.66;1691981;84;21087;-43
2022/08/06 09:41:29;;;;;;;7.17;5.70;;;;;;;30.96;41.68;99474.28;1691858;84;21016;-43
2022/08/06 09:43:58;;;;;;;10.53;5.90;;;;;;;31.01;41.28;99470.16;1720816;83;20983;-43
2022/08/06 09:46:45;;;;;;;8.43;5.92;;;;;;;31.10;41.33;99473.41;1720758;83;21040;-43
2022/08/06 09:49:14;;;;;;;6.10;5.55;;;;;;;31.20;41.69;99464.95;1692221;84;21506;-43
2022/08/06 09:51:42;;;;;;;7.33;5.28;;;;;;;31.27;41.58;99470.11;1692038;84;21234;-43
2022/08/06 09:54:15;;;;;;;7.83;5.53;;;;;;;31.39;41.37;99463.30;1720625;83;20996;-43
2022/08/06 09:56:45;;;;;;;6.62;6.03;;;;;;;31.55;40.89;99464.69;1720523;83;21064;-43
2022/08/06 09:59:12;;;;;;;6.30;5.10;;;;;;;31.69;40.81;99452.56;1691887;84;21593;-43
2022/08/06 10:01:44;;;;;;;7.80;5.83;;;;;;;31.83;40.39;99453.02;1691774;84;21048;-43
2022/08/06 10:04:24;;;;;;;6.40;5.67;;;;;;;31.98;40.03;99457.03;1690322;84;21245;-43
2022/08/06 10:06:58;;;;;;;6.72;6.03;;;;;;;32.15;39.53;99455.07;1720741;83;21019;-43
2022/08/06 10:09:27;;;;;;;6.72;6.10;;;;;;;32.30;39.46;99455.62;1692025;84;21060;-43
2022/08/06 10:11:55;;;;;;;6.17;5.53;;;;;;;32.41;38.93;99458.34;1691820;84;21111;-43
2022/08/06 10:14:34;;;;;;;6.33;5.40;;;;;;;32.49;38.24;99452.34;1720468;83;21084;-43
2022/08/06 10:17:14;;;;;;;8.38;5.60;;;;;;;32.61;38.48;99458.13;1717607;83;21225;-43
2022/08/06 10:19:43;;;;;;;6.10;5.12;;;;;;;32.77;37.97;99453.95;1695075;84;21061;-43
2022/08/06 10:22:16;;;;;;;6.05;5.45;;;;;;;32.97;37.48;99455.00;1695317;84;21053;-43
2022/08/06 10:24:45;;;;;;;6.35;5.65;;;;;;;33.16;36.58;99461.00;1694725;84;21048;-43
2022/08/06 10:27:20;;;;;;;6.70;5.33;;;;;;;33.29;36.77;99458.32;1695226;84;21116;-43
2022/08/06 10:32:55;;;;;;;6.37;5.70;;;;;;;33.59;36.16;99459.30;1774136;79;22288;-43
2022/08/06 10:35:23;;;;;;;6.33;5.67;;;;;;;33.64;36.35;99458.52;1746514;82;20978;-43
2022/08/06 10:37:58;;;;;;;5.97;5.37;;;;;;;33.81;36.80;99460.65;1746413;82;21885;-43
2022/08/06 10:40:26;;;;;;;6.78;6.17;;;;;;;33.99;36.09;99460.06;1746288;82;20896;-43
2022/08/06 10:42:53;;;;;;;6.30;5.70;;;;;;;34.20;36.12;99454.89;1746524;82;21018;-43
2022/08/06 10:45:21;;;;;;;8.93;5.58;;;;;;;34.41;36.07;99459.52;1746351;82;20975;-43
2022/08/06 10:47:49;;;;;;;5.87;5.20;;;;;;;34.62;34.32;99459.87;1746557;82;20943;-43
2022/08/06 10:50:15;;;;;;;6.35;5.50;;;;;;;34.79;33.92;99452.87;1746328;82;21232;-43
2022/08/06 10:52:43;;;;;;;5.85;5.17;;;;;;;34.97;33.47;99451.45;1746228;82;21491;-43
2022/08/06 10:55:11;;;;;;;5.47;4.97;;;;;;;35.16;33.08;99449.48;1746573;82;20947;-43
2022/08/06 10:57:42;;;;;;;6.00;5.40;;;;;;;35.35;32.57;99449.58;1741410;82;20988;-43
2022/08/06 11:00:10;;;;;;;6.15;5.45;;;;;;;35.36;32.81;99455.34;1747161;82;21019;-43
2022/08/06 11:02:58;;;;;;;5.67;5.17;;;;;;;35.46;33.62;99448.71;1746663;82;21220;-43
2022/08/06 11:05:29;;;;;;;6.08;5.42;;;;;;;35.58;33.36;99448.72;1743290;82;21494;-43
2022/08/06 11:08:39;;;;;;;7.97;5.50;;;;;;;35.83;33.62;99451.64;1746318;82;21014;-43
2022/08/06 11:11:31;;;;;;;;;;;;;;;36.05;32.44;99451.38;1748991;82;21030;-43
2022/08/06 11:14:05;;;;;;;5.33;4.87;;;;;;;36.30;32.00;99440.81;1746657;82;20468;-43
2022/08/06 11:16:33;;;;;;;6.15;5.55;;;;;;;36.46;31.70;99434.14;1746382;82;21236;-43
2022/08/06 11:19:07;;;;;;;6.58;5.15;;;;;;;36.75;30.84;99442.33;1746274;82;21544;-43
2022/08/06 11:21:48;;;;;;;7.15;5.55;;;;;;;36.91;31.06;99447.59;1745492;82;20994;-43
2022/08/06 11:24:15;;;;;;;9.35;5.35;;;;;;;36.95;30.29;99448.80;1746365;82;21035;-43
2022/08/06 11:26:44;;;;;;;5.72;5.22;;;;;;;36.84;30.53;99444.01;1746455;82;21012;-43
2022/08/06 11:29:13;;;;;;;7.97;5.67;;;;;;;36.65;30.79;99448.26;1746770;82;21913;-43
2022/08/06 11:31:47;;;;;;;5.75;5.15;;;;;;;36.40;31.14;99450.42;1740760;81;21536;-43
2022/08/06 11:34:19;;;;;;;6.25;5.60;;;;;;;36.11;31.37;99447.84;1733462;82;20959;-43
2022/08/06 11:36:58;;;;;;;6.22;5.22;;;;;;;35.83;32.36;99452.29;1733487;82;21075;-43
2022/08/06 11:39:27;;;;;;;6.67;5.33;;;;;;;35.65;32.52;99450.94;1733440;82;24926;-43
2022/08/06 11:42:01;;;;;;;6.15;5.45;;;;;;;35.57;33.31;99446.55;1733832;82;21743;-43
2022/08/06 11:44:31;;;;;;;8.55;5.00;;;;;;;35.76;32.62;99438.80;1732632;82;21035;-43
2022/08/06 11:47:18;;;;;;;5.50;5.00;;;;;;;36.07;32.07;99443.77;1732362;82;20979;-43
2022/08/06 11:49:47;;;;;;;5.90;5.30;;;;;;;36.25;30.92;99441.66;1732869;82;21016;-43
2022/08/06 11:52:39;;;;;;;5.65;5.15;;;;;;;36.18;31.10;99439.42;1732729;82;21549;-43